createdAt,value
2019-04-16T00:02:27.326Z,37.80
2019-04-16T00:05:14.424Z,38.10
2019-04-16T00:07:52.079Z,38.20
2019-04-16T00:10:42.365Z,38.30
2019-04-16T00:13:20.326Z,38.10
2019-04-16T00:15:52.871Z,38.30
2019-04-16T00:18:23.878Z,38.50
2019-04-16T00:21:20.301Z,38.50
2019-04-16T00:24:07.521Z,38.60
2019-04-16T00:26:38.495Z,38.70
2019-04-16T00:29:09.456Z,38.80
2019-04-16T00:31:42.463Z,38.90
2019-04-16T00:34:14.516Z,38.50
2019-04-16T00:36:48.434Z,39.00
2019-04-16T00:39:18.627Z,39.80
2019-04-16T00:41:49.669Z,39.30
2019-04-16T00:44:21.124Z,39.10
2019-04-16T00:46:52.062Z,39.30
2019-04-16T00:49:26.273Z,39.40
2019-04-16T00:51:56.069Z,39.40
2019-04-16T00:54:26.903Z,39.60
2019-04-16T00:56:58.495Z,39.70
2019-04-16T00:59:29.481Z,39.90
2019-04-16T01:02:01.072Z,40.00
2019-04-16T01:04:32.041Z,40.20
2019-04-16T01:07:02.999Z,40.40
2019-04-16T01:09:33.942Z,40.20
2019-04-16T01:12:05.072Z,40.20
2019-04-16T01:14:36.505Z,40.50
2019-04-16T01:17:08.443Z,40.50
2019-04-16T01:19:41.222Z,40.50
2019-04-16T01:22:15.723Z,40.80
2019-04-16T01:24:44.584Z,40.60
2019-04-16T01:27:15.991Z,41.00
2019-04-16T01:29:46.932Z,41.00
2019-04-16T01:32:26.585Z,40.90
2019-04-16T01:35:09.435Z,41.00
2019-04-16T01:37:58.166Z,41.00
2019-04-16T01:40:41.154Z,40.90
2019-04-16T01:43:12.218Z,41.00
2019-04-16T01:45:43.176Z,41.20
2019-04-16T01:48:14.275Z,41.00
2019-04-16T01:50:45.124Z,41.10
2019-04-16T01:53:18.291Z,41.20
2019-04-16T01:55:48.574Z,41.30
2019-04-16T01:58:19.699Z,41.20
2019-04-16T02:00:50.631Z,41.30
2019-04-16T02:03:21.471Z,41.40
2019-04-16T02:05:54.834Z,41.40
2019-04-16T02:08:24.853Z,41.50
2019-04-16T02:10:55.746Z,41.60
2019-04-16T02:13:26.651Z,41.50
2019-04-16T02:15:57.917Z,41.40
2019-04-16T02:18:29.677Z,41.50
2019-04-16T02:21:02.425Z,41.60
2019-04-16T02:23:33.294Z,41.70
2019-04-16T02:26:05.026Z,41.70
2019-04-16T02:28:35.939Z,42.10
2019-04-16T02:31:12.873Z,42.10
2019-04-16T02:33:39.424Z,42.20
2019-04-16T02:36:10.309Z,42.20
2019-04-16T02:38:46.338Z,42.50
2019-04-16T02:41:13.667Z,42.50
2019-04-16T02:43:44.891Z,42.50
2019-04-16T02:46:16.151Z,42.80
2019-04-16T02:48:51.442Z,42.90
2019-04-16T02:51:26.432Z,43.10
2019-04-16T02:54:16.214Z,43.10
2019-04-16T02:57:26.668Z,43.30
2019-04-16T02:59:58.171Z,43.80
2019-04-16T03:02:46.511Z,43.40
2019-04-16T03:05:42.228Z,43.70
2019-04-16T03:08:13.382Z,43.60
2019-04-16T03:10:44.768Z,44.00
2019-04-16T03:13:16.137Z,43.90
2019-04-16T03:16:24.725Z,43.80
2019-04-16T03:19:01.138Z,44.50
2019-04-16T03:21:33.104Z,44.20
2019-04-16T03:24:07.998Z,44.30
2019-04-16T03:26:36.717Z,44.30
2019-04-16T03:29:07.601Z,44.40
2019-04-16T03:31:38.485Z,45.10
2019-04-16T03:34:09.345Z,44.40
2019-04-16T03:36:40.233Z,44.60
2019-04-16T03:39:13.232Z,44.80
2019-04-16T03:41:43.797Z,44.60
2019-04-16T03:44:15.040Z,44.80
2019-04-16T03:46:46.922Z,45.10
2019-04-16T03:49:18.607Z,45.00
2019-04-16T03:51:50.273Z,45.10
2019-04-16T03:54:22.426Z,45.20
2019-04-16T03:56:54.168Z,45.30
2019-04-16T03:59:25.149Z,45.30
2019-04-16T04:01:56.166Z,45.40
2019-04-16T04:04:29.365Z,45.30
2019-04-16T04:07:00.427Z,45.20
2019-04-16T04:09:32.125Z,45.20
2019-04-16T04:12:03.898Z,45.20
2019-04-16T04:14:35.044Z,45.10
2019-04-16T04:17:07.343Z,45.20
2019-04-16T04:19:38.827Z,45.20
2019-04-16T04:22:22.819Z,45.30
2019-04-16T04:24:54.603Z,45.30
2019-04-16T04:27:25.751Z,45.30
2019-04-16T04:30:03.229Z,45.40
2019-04-16T04:32:35.461Z,45.30
2019-04-16T04:35:07.309Z,45.40
2019-04-16T04:37:38.699Z,45.50
2019-04-16T04:40:09.735Z,45.40
2019-04-16T04:42:40.758Z,45.40
2019-04-16T04:45:11.811Z,45.80
2019-04-16T04:47:42.607Z,45.60
2019-04-16T04:50:13.703Z,45.70
2019-04-16T04:52:46.082Z,45.70
2019-04-16T04:55:17.143Z,45.60
2019-04-16T04:57:48.003Z,45.60
2019-04-16T05:00:19.112Z,45.60
2019-04-16T05:02:49.945Z,45.80
2019-04-16T05:05:31.761Z,45.80
2019-04-16T05:08:02.917Z,45.50
2019-04-16T05:10:36.682Z,45.40
2019-04-16T05:13:06.645Z,45.30
2019-04-16T05:15:37.525Z,45.20
2019-04-16T05:18:09.932Z,44.90
2019-04-16T05:20:40.825Z,45.10
2019-04-16T05:23:12.157Z,45.00
2019-04-16T05:25:42.950Z,45.10
2019-04-16T05:28:14.869Z,44.90
2019-04-16T05:30:46.072Z,44.80
2019-04-16T05:33:16.915Z,43.90
2019-04-16T05:35:47.785Z,43.70
2019-04-16T05:38:20.433Z,43.80
2019-04-16T05:40:51.118Z,42.70
2019-04-16T05:43:22.818Z,41.00
2019-04-16T05:45:53.965Z,40.50
2019-04-16T05:48:24.883Z,40.10
2019-04-16T05:50:59.735Z,40.10
2019-04-16T05:53:28.243Z,40.30
2019-04-16T05:56:20.213Z,39.90
2019-04-16T05:58:50.703Z,38.90
2019-04-16T06:01:30.937Z,38.00
2019-04-16T06:04:01.833Z,37.60
2019-04-16T06:06:32.726Z,36.60
2019-04-16T06:09:04.011Z,35.90
2019-04-16T06:11:36.634Z,34.60
2019-04-16T06:14:39.815Z,34.30
2019-04-16T06:17:42.029Z,34.80
2019-04-16T06:20:30.621Z,32.50
2019-04-16T06:23:19.948Z,30.90
2019-04-16T06:25:55.075Z,29.70
2019-04-16T06:28:48.514Z,28.80
2019-04-16T06:31:41.293Z,27.90
2019-04-16T06:34:19.505Z,27.60
2019-04-16T06:37:09.373Z,26.70
2019-04-16T06:39:47.424Z,26.10
2019-04-16T06:42:28.829Z,25.30
2019-04-16T06:45:04.947Z,24.70
2019-04-16T06:47:46.755Z,24.00
2019-04-16T06:50:40.606Z,23.60
2019-04-16T06:53:36.597Z,23.80
2019-04-16T06:56:16.509Z,23.50
2019-04-16T06:58:54.590Z,23.20
2019-04-16T07:01:46.822Z,22.90
2019-04-16T07:04:42.422Z,22.90
2019-04-16T07:07:39.612Z,22.70
2019-04-16T07:10:11.223Z,21.90
2019-04-16T07:12:42.202Z,21.90
2019-04-16T07:15:13.884Z,21.10
2019-04-16T07:17:44.843Z,20.50
2019-04-16T07:20:15.760Z,20.20
2019-04-16T07:22:46.703Z,20.20
2019-04-16T07:25:18.818Z,19.80
2019-04-16T07:27:58.943Z,19.60
2019-04-16T07:30:40.582Z,19.70
2019-04-16T07:33:29.231Z,19.40
2019-04-16T07:36:07.639Z,18.90
2019-04-16T07:39:13.210Z,18.50
2019-04-16T07:42:11.661Z,17.50
2019-04-16T07:44:55.949Z,17.40
2019-04-16T07:48:00.796Z,17.10
2019-04-16T07:50:56.673Z,17.00
2019-04-16T07:53:52.450Z,16.60
2019-04-16T07:56:25.981Z,16.50
2019-04-16T07:59:00.027Z,16.70
2019-04-16T08:01:29.395Z,15.90
2019-04-16T08:04:00.894Z,15.90
2019-04-16T08:06:33.157Z,16.00
2019-04-16T08:09:06.056Z,15.90
2019-04-16T08:11:37.226Z,15.80
2019-04-16T08:14:09.801Z,15.70
2019-04-16T08:16:47.479Z,15.70
2019-04-16T08:19:15.208Z,15.90
2019-04-16T08:21:46.149Z,15.50
2019-04-16T08:24:24.790Z,16.00
2019-04-16T08:26:54.827Z,15.30
2019-04-16T08:29:26.687Z,15.70
2019-04-16T08:31:57.933Z,15.20
2019-04-16T08:34:28.814Z,15.30
2019-04-16T08:36:59.686Z,15.40
2019-04-16T08:39:30.978Z,14.80
2019-04-16T08:42:02.256Z,15.10
2019-04-16T08:44:35.833Z,14.50
2019-04-16T08:47:11.511Z,14.30
2019-04-16T08:49:38.619Z,14.20
2019-04-16T08:52:10.923Z,14.40
2019-04-16T08:54:42.153Z,14.20
2019-04-16T08:57:13.137Z,14.20
2019-04-16T08:59:44.452Z,14.20
2019-04-16T09:02:15.456Z,14.30
2019-04-16T09:04:46.687Z,13.90
2019-04-16T09:07:35.550Z,14.10
2019-04-16T09:10:17.122Z,13.80
2019-04-16T09:12:45.644Z,14.10
2019-04-16T09:15:19.809Z,14.00
2019-04-16T09:18:06.829Z,13.70
2019-04-16T09:20:39.557Z,13.80
2019-04-16T09:23:10.461Z,13.90
2019-04-16T09:25:50.221Z,14.00
2019-04-16T09:28:39.004Z,13.40
2019-04-16T09:31:44.005Z,13.60
2019-04-16T09:34:27.530Z,13.70
2019-04-16T09:37:21.643Z,13.40
2019-04-16T09:40:17.949Z,13.10
2019-04-16T09:42:44.534Z,12.80
2019-04-16T09:45:18.589Z,13.10
2019-04-16T09:47:50.931Z,13.10
2019-04-16T09:50:21.890Z,13.00
2019-04-16T09:52:55.340Z,13.20
2019-04-16T09:55:25.327Z,13.20
2019-04-16T09:57:57.683Z,13.90
2019-04-16T10:00:32.835Z,13.20
2019-04-16T10:03:18.374Z,13.50
2019-04-16T10:05:49.292Z,13.10
2019-04-16T10:08:20.206Z,13.10
2019-04-16T10:10:51.064Z,13.30
2019-04-16T10:13:31.091Z,13.50
2019-04-16T10:15:55.730Z,13.50
2019-04-16T10:18:26.736Z,13.60
2019-04-16T10:20:57.788Z,13.60
2019-04-16T10:23:36.798Z,13.70
2019-04-16T10:26:08.345Z,13.50
2019-04-16T10:28:40.350Z,13.50
2019-04-16T10:31:14.785Z,13.80
2019-04-16T10:33:45.767Z,14.00
2019-04-16T10:36:16.833Z,14.30
2019-04-16T10:39:04.904Z,14.00
2019-04-16T10:41:44.908Z,14.60
2019-04-16T10:44:33.367Z,15.10
2019-04-16T10:47:22.735Z,15.40
2019-04-16T10:50:18.472Z,15.90
2019-04-16T10:53:14.212Z,16.20
2019-04-16T10:56:07.262Z,16.70
2019-04-16T10:58:55.774Z,17.00
2019-04-16T11:01:39.915Z,17.40
2019-04-16T11:04:16.940Z,17.60
2019-04-16T11:06:49.206Z,17.70
2019-04-16T11:09:20.201Z,17.70
2019-04-16T11:11:51.224Z,17.90
2019-04-16T11:14:22.211Z,18.10
2019-04-16T11:16:53.238Z,18.30
2019-04-16T11:19:25.154Z,18.40
2019-04-16T11:21:56.066Z,18.40
2019-04-16T11:24:26.969Z,18.50
2019-04-16T11:26:57.898Z,18.70
2019-04-16T11:29:28.787Z,18.80
2019-04-16T11:31:59.933Z,19.00
2019-04-16T11:34:30.856Z,18.90
2019-04-16T11:37:07.461Z,19.00
2019-04-16T11:39:34.286Z,19.10
2019-04-16T11:42:05.406Z,19.20
2019-04-16T11:44:36.334Z,19.30
2019-04-16T11:47:07.298Z,19.40
2019-04-16T11:49:38.243Z,19.50
2019-04-16T11:52:09.172Z,19.50
2019-04-16T11:54:40.431Z,19.60
2019-04-16T11:57:13.124Z,19.60
2019-04-16T11:59:44.004Z,19.80
2019-04-16T12:02:26.457Z,19.90
2019-04-16T12:05:09.138Z,19.90
2019-04-16T12:08:14.444Z,19.90
2019-04-16T12:11:19.335Z,20.00
2019-04-16T12:13:57.060Z,20.00
2019-04-16T12:16:59.062Z,20.30
2019-04-16T12:19:54.908Z,20.30
2019-04-16T12:22:30.092Z,20.50
2019-04-16T12:25:20.033Z,20.60
2019-04-16T12:28:24.951Z,20.60
2019-04-16T12:31:16.846Z,20.70
2019-04-16T12:34:07.135Z,20.70
2019-04-16T12:36:55.636Z,20.70
2019-04-16T12:39:48.202Z,21.20
2019-04-16T12:42:41.023Z,20.90
2019-04-16T12:45:39.266Z,20.90
2019-04-16T12:48:28.645Z,21.00
2019-04-16T12:51:11.067Z,21.30
2019-04-16T12:53:54.448Z,21.10
2019-04-16T12:56:50.748Z,21.10
2019-04-16T12:59:48.761Z,21.20
2019-04-16T13:02:36.727Z,21.30
2019-04-16T13:05:15.417Z,21.40
2019-04-16T13:07:55.366Z,21.30
2019-04-16T13:10:39.533Z,21.40
2019-04-16T13:13:26.823Z,21.50
2019-04-16T13:16:19.441Z,21.70
2019-04-16T13:19:09.606Z,21.80
2019-04-16T13:22:00.076Z,21.70
2019-04-16T13:24:35.658Z,22.00
2019-04-16T13:27:10.865Z,22.20
2019-04-16T13:29:41.760Z,22.10
2019-04-16T13:32:12.695Z,22.30
2019-04-16T13:34:43.585Z,22.30
2019-04-16T13:37:14.447Z,22.10
2019-04-16T13:39:50.635Z,22.20
2019-04-16T13:42:21.520Z,23.00
2019-04-16T13:45:15.705Z,22.40
2019-04-16T13:47:45.818Z,22.70
2019-04-16T13:50:24.345Z,22.70
2019-04-16T13:53:01.236Z,22.70
2019-04-16T13:55:51.100Z,22.80
2019-04-16T13:58:32.796Z,22.80
2019-04-16T14:01:14.451Z,22.90
2019-04-16T14:03:45.393Z,22.80
2019-04-16T14:06:16.238Z,22.80
2019-04-16T14:08:47.132Z,22.90
2019-04-16T14:11:19.761Z,22.90
2019-04-16T14:13:51.160Z,22.80
2019-04-16T14:16:22.074Z,23.00
2019-04-16T14:18:52.917Z,23.10
2019-04-16T14:21:24.169Z,23.00
2019-04-16T14:23:55.041Z,23.00
2019-04-16T14:26:25.877Z,23.20
2019-04-16T14:28:58.188Z,23.30
2019-04-16T14:31:29.253Z,23.30
2019-04-16T14:34:11.300Z,23.30
2019-04-16T14:36:42.535Z,23.20
2019-04-16T14:39:44.761Z,23.30
2019-04-16T14:42:15.857Z,23.50
2019-04-16T14:44:51.754Z,23.40
2019-04-16T14:47:22.647Z,23.30
2019-04-16T14:49:54.671Z,23.50
2019-04-16T14:52:25.912Z,23.50
2019-04-16T14:55:09.410Z,23.60
2019-04-16T14:57:59.204Z,23.60
2019-04-16T15:00:52.463Z,23.70
2019-04-16T15:03:51.170Z,23.60
2019-04-16T15:06:41.573Z,23.60
2019-04-16T15:09:21.115Z,23.70
2019-04-16T15:12:17.211Z,23.70
2019-04-16T15:14:58.583Z,23.70
2019-04-16T15:17:40.112Z,23.80
2019-04-16T15:20:29.281Z,23.80
2019-04-16T15:23:34.448Z,23.80
2019-04-16T15:26:17.246Z,23.90
2019-04-16T15:29:14.877Z,23.90
2019-04-16T15:32:13.533Z,24.00
2019-04-16T15:34:45.921Z,24.10
2019-04-16T15:37:25.852Z,24.00
2019-04-16T15:40:07.251Z,24.10
2019-04-16T15:42:54.243Z,24.20
2019-04-16T15:45:43.241Z,24.30
2019-04-16T15:48:35.803Z,24.80
2019-04-16T15:51:24.278Z,24.40
2019-04-16T15:54:14.338Z,24.30
2019-04-16T15:57:07.669Z,24.40
2019-04-16T16:00:04.722Z,24.60
2019-04-16T16:02:55.401Z,24.60
2019-04-16T16:05:42.186Z,24.70
2019-04-16T16:08:35.423Z,24.70
2019-04-16T16:11:06.037Z,24.70
2019-04-16T16:13:37.029Z,25.30
2019-04-16T16:16:10.438Z,24.90
2019-04-16T16:18:40.520Z,24.90
2019-04-16T16:21:11.901Z,24.90
2019-04-16T16:23:42.721Z,25.40
2019-04-16T16:26:13.668Z,24.90
2019-04-16T16:28:44.567Z,25.00
2019-04-16T16:31:15.423Z,25.00
2019-04-16T16:33:46.367Z,25.10
2019-04-16T16:36:17.903Z,25.10
2019-04-16T16:38:49.277Z,25.20
2019-04-16T16:41:20.311Z,25.20
2019-04-16T16:43:51.827Z,25.10
2019-04-16T16:46:55.697Z,25.30
2019-04-16T16:49:14.012Z,25.40
2019-04-16T16:52:02.846Z,25.60
2019-04-16T16:54:35.075Z,25.60
2019-04-16T16:57:24.078Z,25.70
2019-04-16T17:00:13.868Z,25.90
2019-04-16T17:03:10.037Z,26.00
2019-04-16T17:05:40.926Z,26.10
2019-04-16T17:08:12.544Z,26.10
2019-04-16T17:10:43.845Z,26.20
2019-04-16T17:13:18.913Z,26.40
2019-04-16T17:15:48.387Z,26.50
2019-04-16T17:18:19.255Z,26.60
2019-04-16T17:20:50.587Z,26.70
2019-04-16T17:23:25.405Z,26.80
2019-04-16T17:25:57.850Z,26.90
2019-04-16T17:28:28.374Z,26.80
2019-04-16T17:30:59.723Z,26.90
2019-04-16T17:33:30.703Z,27.20
2019-04-16T17:36:01.666Z,27.20
2019-04-16T17:38:33.847Z,27.10
2019-04-16T17:41:11.510Z,27.20
2019-04-16T17:44:02.867Z,27.30
2019-04-16T17:46:49.926Z,27.40
2019-04-16T17:49:39.718Z,27.60
2019-04-16T17:52:15.549Z,27.50
2019-04-16T17:54:54.385Z,27.70
2019-04-16T17:57:44.189Z,27.90
2019-04-16T18:00:40.047Z,27.80
2019-04-16T18:03:39.391Z,27.90
2019-04-16T18:06:44.416Z,28.00
2019-04-16T18:09:24.007Z,28.00
2019-04-16T18:12:19.873Z,28.10
2019-04-16T18:15:09.654Z,28.20
2019-04-16T18:18:05.557Z,28.20
2019-04-16T18:21:01.447Z,28.40
2019-04-16T18:23:41.085Z,28.40
2019-04-16T18:26:40.068Z,28.50
2019-04-16T18:29:15.593Z,28.70
2019-04-16T18:31:57.552Z,28.60
2019-04-16T18:34:50.715Z,28.80
2019-04-16T18:37:48.741Z,28.70
2019-04-16T18:40:34.086Z,28.70
2019-04-16T18:43:30.105Z,28.70
2019-04-16T18:46:19.903Z,28.90
2019-04-16T18:48:54.961Z,29.00
2019-04-16T18:51:26.818Z,29.00
2019-04-16T18:53:57.755Z,29.10
2019-04-16T18:56:28.621Z,29.10
2019-04-16T18:58:59.608Z,29.20
2019-04-16T19:01:32.620Z,29.20
2019-04-16T19:04:03.206Z,29.30
2019-04-16T19:06:34.166Z,29.40
2019-04-16T19:09:06.797Z,29.50
2019-04-16T19:11:38.597Z,29.60
2019-04-16T19:14:10.204Z,29.60
2019-04-16T19:16:41.973Z,29.60
2019-04-16T19:19:12.888Z,29.70
2019-04-16T19:21:44.164Z,29.80
2019-04-16T19:24:15.259Z,29.80
2019-04-16T19:26:47.393Z,29.90
2019-04-16T19:29:18.764Z,30.00
2019-04-16T19:31:54.972Z,30.00
2019-04-16T19:34:22.933Z,30.00
2019-04-16T19:36:55.937Z,30.00
2019-04-16T19:39:26.578Z,30.30
2019-04-16T19:41:58.279Z,30.20
2019-04-16T19:44:31.635Z,30.10
2019-04-16T19:47:01.899Z,30.30
2019-04-16T19:49:33.850Z,30.40
2019-04-16T19:52:04.861Z,30.60
2019-04-16T19:54:35.747Z,30.50
2019-04-16T19:57:06.638Z,30.70
2019-04-16T19:59:37.571Z,30.70
2019-04-16T20:02:08.548Z,30.90
2019-04-16T20:04:41.425Z,30.90
2019-04-16T20:07:12.055Z,31.10
2019-04-16T20:09:43.160Z,31.00
2019-04-16T20:12:14.120Z,31.20
2019-04-16T20:14:45.176Z,31.20
2019-04-16T20:17:16.124Z,31.30
2019-04-16T20:19:59.446Z,31.20
2019-04-16T20:22:32.869Z,31.40
2019-04-16T20:25:05.964Z,31.40
2019-04-16T20:27:39.805Z,31.60
2019-04-16T20:30:15.331Z,31.60
2019-04-16T20:32:47.736Z,31.70
2019-04-16T20:35:20.395Z,31.80
2019-04-16T20:37:54.156Z,31.70
2019-04-16T20:40:26.132Z,31.90
2019-04-16T20:42:58.132Z,31.90
2019-04-16T20:45:30.378Z,31.90
2019-04-16T20:48:02.358Z,32.30
2019-04-16T20:50:40.627Z,32.50
2019-04-16T20:53:12.048Z,32.50
2019-04-16T20:55:47.216Z,32.40
2019-04-16T20:58:16.171Z,32.40
2019-04-16T21:00:49.001Z,32.60
2019-04-16T21:03:22.582Z,32.80
2019-04-16T21:05:59.104Z,32.90
2019-04-16T21:08:27.631Z,33.10
2019-04-16T21:10:59.982Z,33.00
2019-04-16T21:13:31.137Z,33.40
2019-04-16T21:16:03.562Z,33.20
2019-04-16T21:18:34.614Z,33.20
2019-04-16T21:21:05.602Z,33.20
2019-04-16T21:23:36.454Z,33.50
2019-04-16T21:26:07.365Z,33.60
2019-04-16T21:29:03.031Z,33.50
2019-04-16T21:31:42.285Z,33.70
2019-04-16T21:34:37.005Z,33.70
2019-04-16T21:37:45.254Z,33.90
2019-04-16T21:40:16.378Z,33.70
2019-04-16T21:42:47.355Z,33.90
2019-04-16T21:45:18.329Z,33.80
2019-04-16T21:47:49.205Z,34.00
2019-04-16T21:50:20.059Z,33.90
2019-04-16T21:52:55.016Z,34.10
2019-04-16T21:55:23.828Z,34.10
2019-04-16T21:57:54.907Z,34.00
2019-04-16T22:00:43.744Z,34.20
2019-04-16T22:03:17.414Z,34.80
2019-04-16T22:05:49.036Z,34.30
2019-04-16T22:08:19.943Z,34.30
2019-04-16T22:10:50.821Z,34.40
2019-04-16T22:13:21.771Z,34.30
2019-04-16T22:15:53.801Z,34.40
2019-04-16T22:18:25.139Z,35.20
2019-04-16T22:20:56.124Z,34.40
2019-04-16T22:23:26.967Z,34.40
2019-04-16T22:26:02.048Z,34.50
2019-04-16T22:28:30.359Z,34.60
2019-04-16T22:31:01.199Z,34.60
2019-04-16T22:33:32.061Z,34.60
2019-04-16T22:36:03.220Z,34.60
2019-04-16T22:38:35.179Z,34.70
2019-04-16T22:41:17.543Z,34.90
2019-04-16T22:44:13.497Z,34.80
2019-04-16T22:46:53.763Z,34.80
2019-04-16T22:49:24.666Z,35.00
2019-04-16T22:51:55.472Z,35.00
2019-04-16T22:54:26.486Z,35.00
2019-04-16T22:57:03.543Z,35.00
2019-04-16T22:59:39.158Z,35.10
2019-04-16T23:02:16.757Z,35.00
2019-04-16T23:04:47.292Z,35.10
2019-04-16T23:07:18.210Z,35.20
2019-04-16T23:09:49.346Z,35.20
2019-04-16T23:12:21.483Z,35.30
2019-04-16T23:14:52.296Z,35.40
2019-04-16T23:17:26.133Z,35.40
2019-04-16T23:19:57.187Z,35.40
2019-04-16T23:22:28.162Z,36.10
2019-04-16T23:24:59.223Z,35.40
2019-04-16T23:27:30.214Z,35.50
2019-04-16T23:30:01.199Z,35.60
2019-04-16T23:32:32.125Z,35.60
2019-04-16T23:35:03.000Z,35.70
2019-04-16T23:37:33.878Z,35.80
2019-04-16T23:40:07.169Z,36.00
2019-04-16T23:42:40.186Z,35.90
2019-04-16T23:45:31.442Z,35.90
2019-04-16T23:48:28.430Z,36.00
2019-04-16T23:51:18.875Z,36.00
2019-04-16T23:53:54.446Z,36.10
2019-04-16T23:56:43.064Z,36.20
2019-04-16T23:59:21.821Z,36.50
